createdAt,value
2018-09-04T00:00:40.810Z,101387.70
2018-09-04T00:04:05.232Z,101392.22
2018-09-04T00:07:29.640Z,101385.33
2018-09-04T00:10:54.052Z,101382.23
2018-09-04T00:14:18.474Z,101381.22
2018-09-04T00:17:43.167Z,101383.25
2018-09-04T00:21:07.889Z,101376.77
2018-09-04T00:24:32.308Z,101380.78
2018-09-04T00:27:56.693Z,101377.34
2018-09-04T00:31:21.097Z,101376.63
2018-09-04T00:34:45.497Z,101377.19
2018-09-04T00:38:09.954Z,101376.41
2018-09-04T00:41:34.347Z,101369.63
2018-09-04T00:44:58.769Z,101363.25
2018-09-04T00:48:23.194Z,101358.50
2018-09-04T00:51:47.621Z,101357.54
2018-09-04T00:55:12.056Z,101359.86
2018-09-04T00:58:36.455Z,101352.88
2018-09-04T01:02:00.989Z,101363.88
2018-09-04T01:05:25.386Z,101368.11
2018-09-04T01:08:49.824Z,101369.12
2018-09-04T01:12:14.249Z,101371.33
2018-09-04T01:15:38.772Z,101366.67
2018-09-04T01:19:03.304Z,101357.31
2018-09-04T01:22:27.718Z,101355.00
2018-09-04T01:25:52.115Z,101354.23
2018-09-04T01:29:16.546Z,101357.27
2018-09-04T01:32:40.981Z,101363.59
2018-09-04T01:36:05.425Z,101363.23
2018-09-04T01:39:29.791Z,101368.31
2018-09-04T01:42:54.279Z,101369.39
2018-09-04T01:46:18.848Z,101374.39
2018-09-04T01:49:43.260Z,101374.03
2018-09-04T01:53:07.707Z,101375.19
2018-09-04T01:56:32.109Z,101378.97
2018-09-04T01:59:56.505Z,101372.14
2018-09-04T02:03:20.924Z,101371.02
2018-09-04T02:06:45.364Z,101362.05
2018-09-04T02:10:09.743Z,101363.20
2018-09-04T02:13:34.193Z,101364.70
2018-09-04T02:16:58.610Z,101361.80
2018-09-04T02:20:22.992Z,101374.05
2018-09-04T02:23:47.405Z,101373.11
2018-09-04T02:27:11.852Z,101382.48
2018-09-04T02:30:36.252Z,101378.27
2018-09-04T02:34:00.635Z,101375.57
2018-09-04T02:37:25.057Z,101375.06
2018-09-04T02:40:49.511Z,101363.53
2018-09-04T02:44:13.910Z,101370.35
2018-09-04T02:47:38.316Z,101363.95
2018-09-04T02:51:02.757Z,101368.91
2018-09-04T02:54:27.271Z,101374.92
2018-09-04T02:57:51.645Z,101371.98
2018-09-04T03:01:16.089Z,101365.66
2018-09-04T03:04:41.184Z,101363.95
2018-09-04T03:08:05.615Z,101362.64
2018-09-04T03:11:30.077Z,101360.06
2018-09-04T03:14:54.479Z,101349.44
2018-09-04T03:18:18.998Z,101347.72
2018-09-04T03:21:43.393Z,101342.20
2018-09-04T03:25:07.811Z,101337.36
2018-09-04T03:28:32.224Z,101333.05
2018-09-04T03:31:56.765Z,101340.87
2018-09-04T03:35:21.181Z,101342.88
2018-09-04T03:38:45.554Z,101348.95
2018-09-04T03:42:10.005Z,101349.97
2018-09-04T03:45:34.428Z,101344.75
2018-09-04T03:48:58.837Z,101350.12
2018-09-04T03:52:23.331Z,101352.36
2018-09-04T03:55:47.780Z,101357.62
2018-09-04T03:59:12.237Z,101361.77
2018-09-04T04:02:36.678Z,101362.69
2018-09-04T04:06:01.094Z,101359.87
2018-09-04T04:09:25.499Z,101355.47
2018-09-04T04:12:50.000Z,101356.27
2018-09-04T04:16:14.482Z,101351.81
2018-09-04T04:19:38.992Z,101360.92
2018-09-04T04:23:03.401Z,101367.96
2018-09-04T04:26:27.811Z,101370.28
2018-09-04T04:29:52.233Z,101374.28
2018-09-04T04:33:16.640Z,101375.75
2018-09-04T04:36:41.068Z,101380.27
2018-09-04T04:40:06.305Z,101382.08
2018-09-04T04:43:31.313Z,101390.84
2018-09-04T04:46:55.760Z,101387.91
2018-09-04T04:50:20.203Z,101392.45
2018-09-04T04:53:44.635Z,101388.34
2018-09-04T04:57:09.162Z,101381.58
2018-09-04T05:00:33.695Z,101385.73
2018-09-04T05:03:58.640Z,101382.39
2018-09-04T05:07:23.083Z,101384.47
2018-09-04T05:10:47.502Z,101385.63
2018-09-04T05:14:11.977Z,101392.58
2018-09-04T05:17:36.442Z,101386.91
2018-09-04T05:21:00.915Z,101380.30
2018-09-04T05:24:25.316Z,101387.76
2018-09-04T05:27:49.734Z,101393.08
2018-09-04T05:31:14.145Z,101392.22
2018-09-04T05:34:48.618Z,101397.83
2018-09-04T05:38:14.309Z,101397.62
2018-09-04T05:41:38.792Z,101406.48
2018-09-04T05:45:04.025Z,101410.48
2018-09-04T05:48:28.539Z,101408.77
2018-09-04T05:51:53.028Z,101409.91
2018-09-04T05:55:17.576Z,101412.71
2018-09-04T05:58:42.032Z,101421.44
2018-09-04T06:02:06.567Z,101425.33
2018-09-04T06:05:31.031Z,101429.93
2018-09-04T06:08:55.478Z,101435.38
2018-09-04T06:12:20.012Z,101437.92
2018-09-04T06:15:44.410Z,101435.11
2018-09-04T06:19:08.824Z,101439.70
2018-09-04T06:22:33.257Z,101444.67
2018-09-04T06:25:57.709Z,101449.02
2018-09-04T06:29:22.231Z,101443.13
2018-09-04T06:32:46.644Z,101428.27
2018-09-04T06:36:11.061Z,101430.83
2018-09-04T06:39:35.546Z,101429.69
2018-09-04T06:42:59.942Z,101435.39
2018-09-04T06:46:24.429Z,101441.50
2018-09-04T06:49:48.875Z,101444.31
2018-09-04T06:53:13.294Z,101444.30
2018-09-04T06:56:37.681Z,101451.75
2018-09-04T07:00:02.113Z,101447.89
2018-09-04T07:03:26.529Z,101453.92
2018-09-04T07:06:51.942Z,101446.87
2018-09-04T07:10:16.341Z,101454.78
2018-09-04T07:13:40.765Z,101463.52
2018-09-04T07:17:05.262Z,101462.00
2018-09-04T07:20:29.674Z,101467.59
2018-09-04T07:23:54.122Z,101457.79
2018-09-04T07:27:18.602Z,101454.37
2018-09-04T07:30:43.078Z,101456.95
2018-09-04T07:34:07.501Z,101461.93
2018-09-04T07:37:31.965Z,101459.95
2018-09-04T07:40:56.419Z,101457.98
2018-09-04T07:44:20.848Z,101455.07
2018-09-04T07:47:45.292Z,101452.42
2018-09-04T07:51:09.691Z,101455.66
2018-09-04T07:54:34.135Z,101460.05
2018-09-04T07:57:58.606Z,101463.98
2018-09-04T08:01:22.992Z,101469.36
2018-09-04T08:04:47.473Z,101470.69
2018-09-04T08:08:11.916Z,101464.12
2018-09-04T08:11:36.376Z,101466.44
2018-09-04T08:15:00.822Z,101473.99
2018-09-04T08:18:25.242Z,101470.40
2018-09-04T08:21:49.717Z,101477.10
2018-09-04T08:25:14.161Z,101479.16
2018-09-04T08:28:38.578Z,101484.94
2018-09-04T08:32:03.027Z,101492.57
2018-09-04T08:35:27.435Z,101493.15
2018-09-04T08:38:52.639Z,101496.88
2018-09-04T08:42:17.058Z,101494.83
2018-09-04T08:45:41.511Z,101486.73
2018-09-04T08:49:05.998Z,101489.64
2018-09-04T08:52:30.460Z,101487.25
2018-09-04T08:55:54.893Z,101484.66
2018-09-04T08:59:19.425Z,101488.41
2018-09-04T09:02:43.863Z,101485.22
2018-09-04T09:06:08.363Z,101482.89
2018-09-04T09:09:32.789Z,101482.78
2018-09-04T09:12:57.244Z,101477.59
2018-09-04T09:16:21.662Z,101483.45
2018-09-04T09:19:46.129Z,101471.91
2018-09-04T09:23:10.626Z,101469.33
2018-09-04T09:26:35.107Z,101468.59
2018-09-04T09:29:59.563Z,101470.48
2018-09-04T09:33:23.982Z,101468.27
2018-09-04T09:36:48.546Z,101470.94
2018-09-04T09:40:12.861Z,101466.22
2018-09-04T09:43:37.310Z,101471.80
2018-09-04T09:47:03.817Z,101470.95
2018-09-04T09:50:28.289Z,101476.39
2018-09-04T09:53:52.721Z,101473.08
2018-09-04T09:57:17.128Z,101475.20
2018-09-04T10:00:46.861Z,101477.65
2018-09-04T10:04:11.323Z,101473.48
2018-09-04T10:07:35.798Z,101471.52
2018-09-04T10:11:00.175Z,101471.17
2018-09-04T10:14:24.663Z,101470.27
2018-09-04T10:17:49.093Z,101463.16
2018-09-04T10:21:13.569Z,101461.83
2018-09-04T10:24:38.644Z,101459.77
2018-09-04T10:28:03.131Z,101453.81
2018-09-04T10:31:27.560Z,101447.19
2018-09-04T10:34:51.962Z,101445.22
2018-09-04T10:38:16.433Z,101445.55
2018-09-04T10:41:40.919Z,101440.78
2018-09-04T10:45:05.738Z,101438.95
2018-09-04T10:48:31.233Z,101440.53
2018-09-04T10:51:55.659Z,101430.13
2018-09-04T10:55:20.181Z,101424.03
2018-09-04T10:58:44.629Z,101430.31
2018-09-04T11:02:09.092Z,101431.83
2018-09-04T11:05:33.503Z,101430.41
2018-09-04T11:08:57.921Z,101435.80
2018-09-04T11:12:22.396Z,101427.31
2018-09-04T11:15:46.875Z,101427.59
2018-09-04T11:19:14.378Z,101425.98
2018-09-04T11:22:38.822Z,101418.98
2018-09-04T11:26:03.254Z,101422.23
2018-09-04T11:29:27.678Z,101420.99
2018-09-04T11:32:52.108Z,101417.83
2018-09-04T11:36:16.493Z,101421.54
2018-09-04T11:39:40.946Z,101420.79
2018-09-04T11:43:05.595Z,101415.41
2018-09-04T11:46:30.028Z,101427.16
2018-09-04T11:49:54.444Z,101420.16
2018-09-04T11:53:18.879Z,101418.80
2018-09-04T11:56:43.321Z,101414.59
2018-09-04T12:00:10.196Z,101422.02
2018-09-04T12:03:34.645Z,101412.75
2018-09-04T12:06:59.074Z,101412.48
2018-09-04T12:10:23.486Z,101416.23
2018-09-04T12:13:47.893Z,101417.43
2018-09-04T12:17:12.301Z,101421.43
2018-09-04T12:20:42.485Z,101420.66
2018-09-04T12:24:06.925Z,101414.45
2018-09-04T12:27:32.170Z,101410.92
2018-09-04T12:30:57.096Z,101405.33
2018-09-04T12:34:21.526Z,101405.31
2018-09-04T12:37:45.928Z,101405.02
2018-09-04T12:41:17.328Z,101396.92
2018-09-04T12:44:41.748Z,101398.52
2018-09-04T12:48:06.218Z,101396.09
2018-09-04T12:51:30.578Z,101390.31
2018-09-04T12:54:55.412Z,101386.59
2018-09-04T12:58:19.818Z,101392.15
2018-09-04T13:01:44.228Z,101392.51
2018-09-04T13:05:08.902Z,101389.08
2018-09-04T13:08:34.221Z,101386.50
2018-09-04T13:11:58.740Z,101382.80
2018-09-04T13:15:23.240Z,101381.19
2018-09-04T13:18:47.694Z,101384.22
2018-09-04T13:22:12.085Z,101378.02
2018-09-04T13:25:36.569Z,101377.89
2018-09-04T13:29:01.098Z,101378.97
2018-09-04T13:32:32.603Z,101366.65
2018-09-04T13:35:57.076Z,101369.14
2018-09-04T13:39:21.503Z,101365.36
2018-09-04T13:42:45.890Z,101356.86
2018-09-04T13:46:10.333Z,101349.66
2018-09-04T13:49:34.851Z,101353.16
2018-09-04T13:52:59.166Z,101347.00
2018-09-04T13:56:23.605Z,101350.27
2018-09-04T13:59:48.013Z,101350.97
2018-09-04T14:03:12.405Z,101360.41
2018-09-04T14:06:36.981Z,101345.05
2018-09-04T14:10:01.497Z,101349.65
2018-09-04T14:13:25.901Z,101350.45
2018-09-04T14:16:50.414Z,101349.08
2018-09-04T14:20:14.783Z,101337.64
2018-09-04T14:23:39.184Z,101336.95
2018-09-04T14:27:03.638Z,101335.14
2018-09-04T14:30:28.078Z,101339.66
2018-09-04T14:33:52.460Z,101339.50
2018-09-04T14:37:16.957Z,101338.59
2018-09-04T14:40:41.292Z,101344.73
2018-09-04T14:44:05.920Z,101347.80
2018-09-04T14:47:31.402Z,101344.74
2018-09-04T14:50:56.448Z,101348.52
2018-09-04T14:54:20.842Z,101348.60
2018-09-04T14:57:45.237Z,101354.32
2018-09-04T15:01:09.636Z,101351.42
2018-09-04T15:04:34.672Z,101349.80
2018-09-04T15:07:59.086Z,101349.50
2018-09-04T15:11:23.506Z,101353.28
2018-09-04T15:14:47.917Z,101356.23
2018-09-04T15:18:12.321Z,101353.81
2018-09-04T15:21:36.764Z,101359.04
2018-09-04T15:25:01.189Z,101354.62
2018-09-04T15:28:25.564Z,101347.71
2018-09-04T15:31:49.947Z,101342.37
2018-09-04T15:35:14.391Z,101345.37
2018-09-04T15:38:38.769Z,101351.12
2018-09-04T15:42:03.176Z,101338.87
2018-09-04T15:45:27.577Z,101345.29
2018-09-04T15:48:57.125Z,101346.26
2018-09-04T15:52:21.510Z,101346.86
2018-09-04T15:55:45.961Z,101339.20
2018-09-04T15:59:10.830Z,101329.92
2018-09-04T16:02:35.258Z,101332.20
2018-09-04T16:06:00.515Z,101339.23
2018-09-04T16:09:25.287Z,101351.05
2018-09-04T16:12:50.440Z,101356.70
2018-09-04T16:16:15.653Z,101371.00
2018-09-04T16:19:40.729Z,101410.23
2018-09-04T16:23:06.945Z,101411.25
2018-09-04T16:26:31.519Z,101419.68
2018-09-04T16:29:57.173Z,101425.75
2018-09-04T16:33:21.975Z,101419.41
2018-09-04T16:36:46.472Z,101412.53
2018-09-04T16:40:10.978Z,101408.03
2018-09-04T16:43:36.207Z,101411.02
2018-09-04T16:47:00.765Z,101408.05
2018-09-04T16:50:25.329Z,101405.22
2018-09-04T16:53:49.745Z,101402.87
2018-09-04T16:57:14.269Z,101399.36
2018-09-04T17:00:38.771Z,101395.73
2018-09-04T17:04:03.257Z,101397.91
2018-09-04T17:07:27.667Z,101393.75
2018-09-04T17:10:52.617Z,101403.09
2018-09-04T17:14:17.267Z,101403.16
2018-09-04T17:17:43.090Z,101401.06
2018-09-04T17:21:08.177Z,101402.89
2018-09-04T17:24:33.254Z,101407.88
2018-09-04T17:27:58.313Z,101400.06
2018-09-04T17:31:22.968Z,101397.27
2018-09-04T17:34:47.684Z,101398.44
2018-09-04T17:38:12.892Z,101402.20
2018-09-04T17:41:37.620Z,101396.82
2018-09-04T17:45:02.402Z,101401.89
2018-09-04T17:48:27.222Z,101409.11
2018-09-04T17:51:52.099Z,101411.30
2018-09-04T17:55:16.721Z,101414.27
2018-09-04T17:58:41.555Z,101419.80
2018-09-04T18:02:06.474Z,101429.37
2018-09-04T18:05:31.297Z,101428.45
2018-09-04T18:08:55.999Z,101443.22
2018-09-04T18:12:20.871Z,101439.65
2018-09-04T18:15:45.570Z,101438.27
2018-09-04T18:19:10.331Z,101440.53
2018-09-04T18:22:35.085Z,101442.25
2018-09-04T18:25:59.653Z,101438.12
2018-09-04T18:29:24.449Z,101448.91
2018-09-04T18:32:49.218Z,101443.02
2018-09-04T18:36:13.919Z,101436.00
2018-09-04T18:39:38.620Z,101439.28
2018-09-04T18:43:03.320Z,101438.27
2018-09-04T18:46:28.117Z,101448.75
2018-09-04T18:49:52.935Z,101443.91
2018-09-04T18:53:17.735Z,101442.45
2018-09-04T18:56:42.296Z,101449.51
2018-09-04T19:00:07.508Z,101442.30
2018-09-04T19:03:31.925Z,101451.41
2018-09-04T19:06:56.376Z,101450.91
2018-09-04T19:10:20.813Z,101446.62
2018-09-04T19:13:45.280Z,101450.73
2018-09-04T19:17:09.746Z,101454.88
2018-09-04T19:20:34.231Z,101455.38
2018-09-04T19:23:58.783Z,101453.84
2018-09-04T19:27:23.179Z,101453.17
2018-09-04T19:30:47.621Z,101451.61
2018-09-04T19:34:12.043Z,101447.33
2018-09-04T19:37:36.549Z,101453.53
2018-09-04T19:41:00.952Z,101458.50
2018-09-04T19:44:25.398Z,101463.45
2018-09-04T19:47:49.822Z,101466.21
2018-09-04T19:51:14.324Z,101452.55
2018-09-04T19:54:38.875Z,101457.23
2018-09-04T19:58:03.323Z,101455.23
2018-09-04T20:01:27.769Z,101459.88
2018-09-04T20:04:56.377Z,101454.17
2018-09-04T20:08:21.533Z,101462.94
2018-09-04T20:11:47.560Z,101458.67
2018-09-04T20:15:13.312Z,101463.14
2018-09-04T20:18:38.731Z,101459.70
2018-09-04T20:22:04.200Z,101463.84
2018-09-04T20:25:29.039Z,101475.52
2018-09-04T20:28:53.482Z,101474.63
2018-09-04T20:32:19.419Z,101477.17
2018-09-04T20:35:44.134Z,101481.66
2018-09-04T20:39:08.545Z,101487.84
2018-09-04T20:42:33.758Z,101481.48
2018-09-04T20:45:58.175Z,101476.16
2018-09-04T20:49:22.652Z,101475.44
2018-09-04T20:52:47.179Z,101479.07
2018-09-04T20:56:11.656Z,101474.06
2018-09-04T20:59:53.061Z,101477.65
2018-09-04T21:03:34.434Z,101475.21
2018-09-04T21:06:57.244Z,101481.05
2018-09-04T21:10:21.707Z,101473.31
2018-09-04T21:13:46.167Z,101478.65
2018-09-04T21:17:10.712Z,101478.33
2018-09-04T21:20:35.178Z,101478.51
2018-09-04T21:23:59.639Z,101484.49
2018-09-04T21:27:24.079Z,101475.35
2018-09-04T21:30:48.511Z,101475.69
2018-09-04T21:34:12.922Z,101480.16
2018-09-04T21:37:37.339Z,101476.90
2018-09-04T21:41:01.748Z,101478.48
2018-09-04T21:44:26.159Z,101478.27
2018-09-04T21:47:50.644Z,101481.02
2018-09-04T21:51:15.156Z,101484.25
2018-09-04T21:54:40.663Z,101487.34
2018-09-04T21:58:05.278Z,101489.58
2018-09-04T22:01:29.719Z,101486.83
2018-09-04T22:04:54.151Z,101486.70
2018-09-04T22:08:18.614Z,101489.84
2018-09-04T22:11:43.359Z,101486.92
2018-09-04T22:15:07.863Z,101488.13
2018-09-04T22:18:32.321Z,101483.40
2018-09-04T22:21:56.758Z,101485.50
2018-09-04T22:25:21.300Z,101479.16
2018-09-04T22:28:45.785Z,101471.67
2018-09-04T22:32:11.244Z,101467.55
2018-09-04T22:35:35.710Z,101484.50
2018-09-04T22:39:00.217Z,101476.98
2018-09-04T22:42:24.638Z,101478.19
2018-09-04T22:45:49.065Z,101470.59
2018-09-04T22:49:13.574Z,101476.38
2018-09-04T22:52:38.044Z,101468.98
2018-09-04T22:56:02.477Z,101467.95
2018-09-04T22:59:27.626Z,101471.37
2018-09-04T23:02:52.085Z,101472.59
2018-09-04T23:06:16.544Z,101465.09
2018-09-04T23:09:40.991Z,101475.03
2018-09-04T23:13:05.461Z,101473.88
2018-09-04T23:16:29.906Z,101470.23
2018-09-04T23:19:54.371Z,101464.56
2018-09-04T23:23:18.797Z,101463.25
2018-09-04T23:26:43.223Z,101458.05
2018-09-04T23:30:07.731Z,101459.00
2018-09-04T23:33:33.211Z,101458.03
2018-09-04T23:36:57.682Z,101460.20
2018-09-04T23:40:22.098Z,101460.11
2018-09-04T23:43:46.551Z,101459.17
2018-09-04T23:47:10.967Z,101459.33
2018-09-04T23:50:35.462Z,101462.88
2018-09-04T23:53:59.928Z,101470.05
2018-09-04T23:57:24.396Z,101462.11
